Time;durP1;ratioP1;P1;durP2;ratioP2;P2;SDS_P1;SDS_P2;PMS_P1;PMS_P2;Temp;Humidity;BMP_temperature;BMP_pressure;BME280_temperature;BME280_humidity;BME280_pressure;Samples;Min_cycle;Max_cycle;Signal;HPM_P1;HPM_P2
2021/06/03 00:02:03;;;;;;;;;;;;;;;;;;5000569;28;19945;-80
2021/06/03 00:04:31;;;;;;;;;;;;;;;;;;5011240;28;19925;-80
2021/06/03 00:06:59;;;;;;;;;;;;;;;;;;5038039;28;19928;-79
2021/06/03 00:09:27;;;;;;;;;;;;;;;;;;5015316;28;19929;-80
2021/06/03 00:11:55;;;;;;;;;;;;;;;;;;5029186;28;19944;-80
2021/06/03 00:14:23;;;;;;;;;;;;;;;;;;5040503;28;20282;-79
2021/06/03 00:16:51;;;;;;;;;;;;;;;;;;5022707;28;19921;-80
2021/06/03 00:19:20;;;;;;;;;;;;;;;;;;5034981;28;19924;-80
2021/06/03 00:21:48;;;;;;;;;;;;;;;;;;5030977;28;20175;-80
2021/06/03 00:24:16;;;;;;;;;;;;;;;;;;5005568;28;19921;-79
2021/06/03 00:26:44;;;;;;;;;;;;;;;;;;5021635;28;19925;-80
2021/06/03 00:29:13;;;;;;;;;;;;;;;;;;5011448;28;20395;-80
2021/06/03 00:31:41;;;;;;;;;;;;;;;;;;5047625;28;19922;-80
2021/06/03 00:34:09;;;;;;;;;;;;;;;;;;5003853;28;22690;-80
2021/06/03 00:36:39;;;;;;;;;;;;;;;;;;4999321;28;20326;-80
2021/06/03 00:39:06;;;;;;;;;;;;;;;;;;5043341;28;19935;-80
2021/06/03 00:41:34;;;;;;;;;;;;;;;;;;5033414;28;20410;-80
2021/06/03 00:44:03;;;;;;;;;;;;;;;;;;5050871;28;19921;-80
2021/06/03 00:46:31;;;;;;;;;;;;;;;;;;5058358;28;19947;-80
2021/06/03 00:48:59;;;;;;;;;;;;;;;;;;5024602;28;19927;-80
2021/06/03 00:51:29;;;;;;;;;;;;;;;;;;5024531;28;19920;-80
2021/06/03 00:53:59;;;;;;;;;;;;;;;;;;5042544;28;19931;-80
2021/06/03 00:56:27;;;;;;;;;;;;;;;;;;5027461;28;19935;-80
2021/06/03 00:58:55;;;;;;;;;;;;;;;;;;5034209;28;19928;-83
2021/06/03 01:01:28;;;;;;;;;;;;;;;;;;5033850;28;19929;-82
2021/06/03 01:03:58;;;;;;;;;;;;;;;;;;5026067;28;19924;-80
2021/06/03 01:06:27;;;;;;;;;;;;;;;;;;5035674;28;19940;-80
2021/06/03 01:08:57;;;;;;;;;;;;;;;;;;5052175;28;19920;-79
2021/06/03 01:11:28;;;;;;;;;;;;;;;;;;5040631;28;20433;-80
2021/06/03 01:14:02;;;;;;;;;;;;;;;;;;5022210;28;19928;-81
2021/06/03 01:16:31;;;;;;;;;;;;;;;;;;5053193;28;19921;-81
2021/06/03 01:19:01;;;;;;;;;;;;;;;;;;5046617;28;19928;-81
2021/06/03 01:21:30;;;;;;;;;;;;;;;;;;5036564;28;19929;-80
2021/06/03 01:24:17;;;;;;;;;;;;;;;;;;5049631;28;19921;-80
2021/06/03 01:26:45;;;;;;;;;;;;;;;;;;5042566;28;19927;-79
2021/06/03 01:29:15;;;;;;;;;;;;;;;;;;5032292;28;19929;-79
2021/06/03 01:31:48;;;;;;;;;;;;;;;;;;5030857;28;20079;-80
2021/06/03 01:34:19;;;;;;;;;;;;;;;;;;5016354;28;19928;-80
2021/06/03 01:36:47;;;;;;;;;;;;;;;;;;5035699;28;20294;-79
2021/06/03 01:39:15;;;;;;;;;;;;;;;;;;5018706;28;19928;-80
2021/06/03 01:41:44;;;;;;;;;;;;;;;;;;5067574;28;20291;-80
2021/06/03 01:44:15;;;;;;;;;;;;;;;;;;5064536;28;19921;-80
2021/06/03 01:46:46;;;;;;;;;;;;;;;;;;5045771;28;19932;-79
2021/06/03 01:49:15;;;;;;;;;;;;;;;;;;5041220;28;19929;-80
2021/06/03 01:51:43;;;;;;;;;;;;;;;;;;5035582;28;20290;-79
2021/06/03 01:54:13;;;;;;;;;;;;;;;;;;5029873;28;19920;-80
2021/06/03 01:56:41;;;;;;;;;;;;;;;;;;5045224;28;20397;-80
2021/06/03 01:59:12;;;;;;;;;;;;;;;;;;5024763;28;19921;-81
2021/06/03 02:01:40;;;;;;;;;;;;;;;;;;5047908;28;19921;-80
2021/06/03 02:04:10;;;;;;;;;;;;;;;;;;5030191;28;20382;-79
2021/06/03 02:06:38;;;;;;;;;;;;;;;;;;5035052;28;19928;-80
2021/06/03 02:09:08;;;;;;;;;;;;;;;;;;5042980;28;19927;-83
2021/06/03 02:11:37;;;;;;;;;;;;;;;;;;5040791;28;20393;-81
2021/06/03 02:14:05;;;;;;;;;;;;;;;;;;5052948;28;19920;-82
2021/06/03 02:16:44;;;;;;;;;;;;;;;;;;5025526;28;19924;-81
2021/06/03 02:19:14;;;;;;;;;;;;;;;;;;5056006;28;19932;-83
2021/06/03 02:21:50;;;;;;;;;;;;;;;;;;5034426;28;21756;-82
2021/06/03 02:24:19;;;;;;;;;;;;;;;;;;5026050;28;20283;-81
2021/06/03 02:26:49;;;;;;;;;;;;;;;;;;5013398;28;19944;-81
2021/06/03 02:29:17;;;;;;;;;;;;;;;;;;5045439;28;19928;-81
2021/06/03 02:32:12;;;;;;;;;;;;;;;;;;5053283;28;19921;-82
2021/06/03 02:34:41;;;;;;;;;;;;;;;;;;5027852;28;19920;-80
2021/06/03 02:37:10;;;;;;;;;;;;;;;;;;5028938;28;19966;-80
2021/06/03 02:39:40;;;;;;;;;;;;;;;;;;5033392;28;19971;-80
2021/06/03 02:42:09;;;;;;;;;;;;;;;;;;5017608;28;19947;-81
2021/06/03 02:44:38;;;;;;;;;;;;;;;;;;5013165;28;19936;-80
2021/06/03 02:47:06;;;;;;;;;;;;;;;;;;5028204;28;19928;-80
2021/06/03 02:49:37;;;;;;;;;;;;;;;;;;5020525;28;19924;-80
2021/06/03 02:52:06;;;;;;;;;;;;;;;;;;5051636;28;19921;-79
2021/06/03 02:54:34;;;;;;;;;;;;;;;;;;5040890;28;19921;-80
2021/06/03 02:57:02;;;;;;;;;;;;;;;;;;5056334;28;19924;-81
2021/06/03 02:59:32;;;;;;;;;;;;;;;;;;5029605;27;19944;-79
2021/06/03 03:02:01;;;;;;;;;;;;;;;;;;5038674;28;20202;-79
2021/06/03 03:04:32;;;;;;;;;;;;;;;;;;5030967;28;19935;-80
2021/06/03 03:07:02;;;;;;;;;;;;;;;;;;5019094;28;19921;-79
2021/06/03 03:09:32;;;;;;;;;;;;;;;;;;5057385;28;19951;-80
2021/06/03 03:12:00;;;;;;;;;;;;;;;;;;5023434;28;19921;-80
2021/06/03 03:14:31;;;;;;;;;;;;;;;;;;5067317;28;20100;-79
2021/06/03 03:16:59;;;;;;;;;;;;;;;;;;5070614;28;19929;-82
2021/06/03 03:19:29;;;;;;;;;;;;;;;;;;5043615;28;19936;-83
2021/06/03 03:21:59;;;;;;;;;;;;;;;;;;5016058;28;19929;-80
2021/06/03 03:24:29;;;;;;;;;;;;;;;;;;5030600;28;19929;-81
2021/06/03 03:26:58;;;;;;;;;;;;;;;;;;5053885;28;19921;-79
2021/06/03 03:29:26;;;;;;;;;;;;;;;;;;5051870;28;19935;-78
2021/06/03 03:31:54;;;;;;;;;;;;;;;;;;5070522;28;20382;-79
2021/06/03 03:34:24;;;;;;;;;;;;;;;;;;5022469;28;19921;-79
2021/06/03 03:36:53;;;;;;;;;;;;;;;;;;5039140;28;19921;-80
2021/06/03 03:39:21;;;;;;;;;;;;;;;;;;5036532;28;20286;-80
2021/06/03 03:41:54;;;;;;;;;;;;;;;;;;5046588;28;19929;-80
2021/06/03 03:44:22;;;;;;;;;;;;;;;;;;5030004;28;20171;-79
2021/06/03 03:46:50;;;;;;;;;;;;;;;;;;5025640;28;19929;-79
2021/06/03 03:49:22;;;;;;;;;;;;;;;;;;5045380;28;19927;-79
2021/06/03 03:51:53;;;;;;;;;;;;;;;;;;5056422;28;19921;-79
2021/06/03 03:54:21;;;;;;;;;;;;;;;;;;5044845;28;19927;-79
2021/06/03 03:56:50;;;;;;;;;;;;;;;;;;5046468;28;20377;-80
2021/06/03 03:59:20;;;;;;;;;;;;;;;;;;5046573;28;20035;-80
2021/06/03 04:01:52;;;;;;;;;;;;;;;;;;5019437;28;19935;-79
2021/06/03 04:04:21;;;;;;;;;;;;;;;;;;5065537;28;19925;-79
2021/06/03 04:06:50;;;;;;;;;;;;;;;;;;5052503;28;21681;-80
2021/06/03 04:09:17;;;;;;;;;;;;;;;;;;5034466;28;19921;-79
2021/06/03 04:11:49;;;;;;;;;;;;;;;;;;5021333;28;19936;-79
2021/06/03 04:14:17;;;;;;;;;;;;;;;;;;5049572;28;19928;-79
2021/06/03 04:16:47;;;;;;;;;;;;;;;;;;5064296;28;19920;-81
2021/06/03 04:19:20;;;;;;;;;;;;;;;;;;5009839;28;19928;-80
2021/06/03 04:21:50;;;;;;;;;;;;;;;;;;5068245;28;19928;-79
2021/06/03 04:24:18;;;;;;;;;;;;;;;;;;5067603;28;19944;-79
2021/06/03 04:26:45;;;;;;;;;;;;;;;;;;5038315;28;19920;-81
2021/06/03 04:29:13;;;;;;;;;;;;;;;;;;5075416;28;19920;-80
2021/06/03 04:31:42;;;;;;;;;;;;;;;;;;5061307;28;19956;-80
2021/06/03 04:34:11;;;;;;;;;;;;;;;;;;5041008;28;19928;-81
2021/06/03 04:36:39;;;;;;;;;;;;;;;;;;5044398;28;19921;-79
2021/06/03 04:39:07;;;;;;;;;;;;;;;;;;5038925;28;19928;-79
2021/06/03 04:41:35;;;;;;;;;;;;;;;;;;5036698;28;19925;-81
2021/06/03 04:44:03;;;;;;;;;;;;;;;;;;5040656;28;19921;-79
2021/06/03 04:46:30;;;;;;;;;;;;;;;;;;5045984;28;19931;-80
2021/06/03 04:48:58;;;;;;;;;;;;;;;;;;5033272;28;19928;-80
2021/06/03 04:51:27;;;;;;;;;;;;;;;;;;5023263;28;19929;-79
2021/06/03 04:53:55;;;;;;;;;;;;;;;;;;5034165;28;19921;-79
2021/06/03 04:56:23;;;;;;;;;;;;;;;;;;5041733;28;19928;-78
2021/06/03 04:58:51;;;;;;;;;;;;;;;;;;5071134;28;19928;-78
2021/06/03 05:01:19;;;;;;;;;;;;;;;;;;5033047;28;19921;-78
2021/06/03 05:03:46;;;;;;;;;;;;;;;;;;5047635;28;19929;-79
2021/06/03 05:06:14;;;;;;;;;;;;;;;;;;5031374;28;19944;-78
2021/06/03 05:08:44;;;;;;;;;;;;;;;;;;5022195;28;19928;-78
2021/06/03 05:11:11;;;;;;;;;;;;;;;;;;5039675;28;20275;-79
2021/06/03 05:13:39;;;;;;;;;;;;;;;;;;5020692;28;20303;-78
2021/06/03 05:16:07;;;;;;;;;;;;;;;;;;5052291;28;19928;-78
2021/06/03 05:18:35;;;;;;;;;;;;;;;;;;5075842;28;20363;-79
2021/06/03 05:21:03;;;;;;;;;;;;;;;;;;5038814;28;19921;-77
2021/06/03 05:23:31;;;;;;;;;;;;;;;;;;5038352;28;19948;-79
2021/06/03 05:26:00;;;;;;;;;;;;;;;;;;5034692;28;20110;-78
2021/06/03 05:28:28;;;;;;;;;;;;;;;;;;5066299;28;19921;-78
2021/06/03 05:30:56;;;;;;;;;;;;;;;;;;5021690;28;19925;-78
2021/06/03 05:33:24;;;;;;;;;;;;;;;;;;5030126;28;19928;-78
2021/06/03 05:35:51;;;;;;;;;;;;;;;;;;5041795;28;19920;-80
2021/06/03 05:38:19;;;;;;;;;;;;;;;;;;5034957;28;19921;-80
2021/06/03 05:40:47;;;;;;;;;;;;;;;;;;5038091;28;19921;-77
2021/06/03 05:43:16;;;;;;;;;;;;;;;;;;5035449;28;20311;-78
2021/06/03 05:45:44;;;;;;;;;;;;;;;;;;5036426;28;19944;-77
2021/06/03 05:48:12;;;;;;;;;;;;;;;;;;5022621;28;20024;-78
2021/06/03 05:50:40;;;;;;;;;;;;;;;;;;5026036;28;19921;-78
2021/06/03 05:53:08;;;;;;;;;;;;;;;;;;5023202;28;19928;-78
2021/06/03 05:55:35;;;;;;;;;;;;;;;;;;5012169;28;19928;-79
2021/06/03 05:58:03;;;;;;;;;;;;;;;;;;5015769;28;19921;-77
2021/06/03 06:00:34;;;;;;;;;;;;;;;;;;5032594;28;20310;-78
2021/06/03 06:03:06;;;;;;;;;;;;;;;;;;5026573;28;20497;-78
2021/06/03 06:08:20;;;;;;;;;;;;;;;;;;5000511;28;19928;-79
2021/06/03 06:10:48;;;;;;;;;;;;;;;;;;5074226;28;20341;-79
2021/06/03 06:13:16;;;;;;;;;;;;;;;;;;5036447;28;19921;-79
2021/06/03 06:15:45;;;;;;;;;;;;;;;;;;5049084;28;19936;-78
2021/06/03 06:18:14;;;;;;;;;;;;;;;;;;5057682;28;19921;-77
2021/06/03 06:20:42;;;;;;;;;;;;;;;;;;5037703;28;19924;-78
2021/06/03 06:23:14;;;;;;;;;;;;;;;;;;5036012;28;19929;-77
2021/06/03 06:25:42;;;;;;;;;;;;;;;;;;5025508;28;19925;-78
2021/06/03 06:28:10;;;;;;;;;;;;;;;;;;5037772;28;19928;-77
2021/06/03 06:30:38;;;;;;;;;;;;;;;;;;5050105;28;20390;-77
2021/06/03 06:33:07;;;;;;;;;;;;;;;;;;5064056;28;19921;-80
2021/06/03 06:35:36;;;;;;;;;;;;;;;;;;5034023;28;20386;-81
2021/06/03 06:38:05;;;;;;;;;;;;;;;;;;5057640;28;20248;-80
2021/06/03 06:40:35;;;;;;;;;;;;;;;;;;5036115;28;20401;-79
2021/06/03 06:43:03;;;;;;;;;;;;;;;;;;5028197;28;19929;-80
2021/06/03 06:45:31;;;;;;;;;;;;;;;;;;5017132;28;20602;-79
2021/06/03 06:47:59;;;;;;;;;;;;;;;;;;5015475;28;19927;-78
2021/06/03 06:50:30;;;;;;;;;;;;;;;;;;5040157;28;19925;-78
2021/06/03 06:52:57;;;;;;;;;;;;;;;;;;5036851;28;19948;-80
2021/06/03 06:55:26;;;;;;;;;;;;;;;;;;5052510;28;19929;-79
2021/06/03 06:57:54;;;;;;;;;;;;;;;;;;5038145;28;19925;-80
2021/06/03 07:00:23;;;;;;;;;;;;;;;;;;5033389;28;19925;-80
2021/06/03 07:02:51;;;;;;;;;;;;;;;;;;5036238;28;19929;-79
2021/06/03 07:05:19;;;;;;;;;;;;;;;;;;5067406;28;19924;-80
2021/06/03 07:07:48;;;;;;;;;;;;;;;;;;5036356;28;19932;-79
2021/06/03 07:10:17;;;;;;;;;;;;;;;;;;5063190;28;19920;-80
2021/06/03 07:12:45;;;;;;;;;;;;;;;;;;5033808;28;19925;-81
2021/06/03 07:15:14;;;;;;;;;;;;;;;;;;5037986;28;19932;-79
2021/06/03 07:17:42;;;;;;;;;;;;;;;;;;5050917;28;20355;-79
2021/06/03 07:20:11;;;;;;;;;;;;;;;;;;5072585;28;19920;-80
2021/06/03 07:22:39;;;;;;;;;;;;;;;;;;5027601;28;20383;-80
2021/06/03 07:25:09;;;;;;;;;;;;;;;;;;5037984;28;19921;-79
2021/06/03 07:27:38;;;;;;;;;;;;;;;;;;5024031;28;19925;-80
2021/06/03 07:30:07;;;;;;;;;;;;;;;;;;5028817;28;19928;-81
2021/06/03 07:32:35;;;;;;;;;;;;;;;;;;5043214;28;19921;-80
2021/06/03 07:35:05;;;;;;;;;;;;;;;;;;5030810;28;19924;-80
2021/06/03 07:37:33;;;;;;;;;;;;;;;;;;5071372;28;19935;-82
2021/06/03 07:40:01;;;;;;;;;;;;;;;;;;5063678;28;20070;-79
2021/06/03 07:42:32;;;;;;;;;;;;;;;;;;5072264;28;19928;-80
2021/06/03 07:44:59;;;;;;;;;;;;;;;;;;5032691;28;19920;-80
2021/06/03 07:47:28;;;;;;;;;;;;;;;;;;5073480;28;19921;-81
2021/06/03 07:49:55;;;;;;;;;;;;;;;;;;5060048;28;20290;-79
2021/06/03 07:52:23;;;;;;;;;;;;;;;;;;5068782;28;20397;-79
2021/06/03 07:54:51;;;;;;;;;;;;;;;;;;5037646;28;20278;-80
2021/06/03 07:57:21;;;;;;;;;;;;;;;;;;5034346;28;20374;-80
2021/06/03 07:59:51;;;;;;;;;;;;;;;;;;5023868;28;19925;-80
2021/06/03 08:02:20;;;;;;;;;;;;;;;;;;5035328;28;21130;-80
2021/06/03 08:04:48;;;;;;;;;;;;;;;;;;5010473;28;19929;-80
2021/06/03 08:07:16;;;;;;;;;;;;;;;;;;5033119;28;19921;-82
2021/06/03 08:09:45;;;;;;;;;;;;;;;;;;5062311;28;19940;-81
2021/06/03 08:12:18;;;;;;;;;;;;;;;;;;5068504;28;19928;-80
2021/06/03 08:14:46;;;;;;;;;;;;;;;;;;5069111;28;19909;-81
2021/06/03 08:17:18;;;;;;;;;;;;;;;;;;5062616;28;19927;-81
2021/06/03 08:19:47;;;;;;;;;;;;;;;;;;5057432;28;20469;-80
2021/06/03 08:22:15;;;;;;;;;;;;;;;;;;5045446;28;19935;-80
2021/06/03 08:24:42;;;;;;;;;;;;;;;;;;5032938;28;19925;-80
2021/06/03 08:27:10;;;;;;;;;;;;;;;;;;5043229;28;19927;-80
2021/06/03 08:29:39;;;;;;;;;;;;;;;;;;5053361;28;19921;-80
2021/06/03 08:32:08;;;;;;;;;;;;;;;;;;5054300;28;20689;-78
2021/06/03 08:34:39;;;;;;;;;;;;;;;;;;5083741;28;19944;-79
2021/06/03 08:37:11;;;;;;;;;;;;;;;;;;5069113;28;19920;-80
2021/06/03 08:39:44;;;;;;;;;;;;;;;;;;5036325;28;20409;-79
2021/06/03 08:42:12;;;;;;;;;;;;;;;;;;5038932;28;19932;-80
2021/06/03 08:44:41;;;;;;;;;;;;;;;;;;5051358;28;20302;-79
2021/06/03 08:47:09;;;;;;;;;;;;;;;;;;5033837;28;20291;-79
2021/06/03 08:49:38;;;;;;;;;;;;;;;;;;5027222;28;19921;-79
2021/06/03 08:52:07;;;;;;;;;;;;;;;;;;5039930;28;19944;-80
2021/06/03 08:54:36;;;;;;;;;;;;;;;;;;5037915;28;19981;-80
2021/06/03 08:57:07;;;;;;;;;;;;;;;;;;5063431;28;19927;-80
2021/06/03 08:59:37;;;;;;;;;;;;;;;;;;5060616;28;19920;-80
2021/06/03 09:02:07;;;;;;;;;;;;;;;;;;5037710;28;19924;-80
2021/06/03 09:04:36;;;;;;;;;;;;;;;;;;5051883;28;20094;-80
2021/06/03 09:07:06;;;;;;;;;;;;;;;;;;5022627;28;19921;-80
2021/06/03 09:09:35;;;;;;;;;;;;;;;;;;5024527;28;19925;-80
2021/06/03 09:12:10;;;;;;;;;;;;;;;;;;5036354;28;19931;-79
2021/06/03 09:15:10;;;;;;;;;;;;;;;;;;5073656;28;20290;-79
2021/06/03 09:17:46;;;;;;;;;;;;;;;;;;5026731;28;19924;-80
2021/06/03 09:20:16;;;;;;;;;;;;;;;;;;5056539;28;19928;-80
2021/06/03 09:22:49;;;;;;;;;;;;;;;;;;5035376;28;19921;-79
2021/06/03 09:25:29;;;;;;;;;;;;;;;;;;5058330;28;19921;-79
2021/06/03 09:28:00;;;;;;;;;;;;;;;;;;5037629;28;19932;-79
2021/06/03 09:30:32;;;;;;;;;;;;;;;;;;5026880;28;19920;-81
2021/06/03 09:33:01;;;;;;;;;;;;;;;;;;5062086;28;20278;-79
2021/06/03 09:35:31;;;;;;;;;;;;;;;;;;5047278;28;20271;-83
2021/06/03 09:38:07;;;;;;;;;;;;;;;;;;5050057;28;19928;-79
2021/06/03 09:40:45;;;;;;;;;;;;;;;;;;5049935;28;19925;-80
2021/06/03 09:43:16;;;;;;;;;;;;;;;;;;5070933;28;20578;-80
2021/06/03 09:45:52;;;;;;;;;;;;;;;;;;5031683;28;20378;-80
2021/06/03 09:48:37;;;;;;;;;;;;;;;;;;5036377;28;19928;-79
2021/06/03 09:51:17;;;;;;;;;;;;;;;;;;5092594;28;19920;-79
2021/06/03 09:53:51;;;;;;;;;;;;;;;;;;5056031;28;20297;-80
2021/06/03 09:56:32;;;;;;;;;;;;;;;;;;5047416;28;19921;-80
2021/06/03 09:59:01;;;;;;;;;;;;;;;;;;5057533;28;19928;-81
2021/06/03 10:01:42;;;;;;;;;;;;;;;;;;5054369;28;19924;-81
2021/06/03 10:04:11;;;;;;;;;;;;;;;;;;5059615;28;19921;-79
2021/06/03 10:06:54;;;;;;;;;;;;;;;;;;5035902;28;19925;-80
2021/06/03 10:09:40;;;;;;;;;;;;;;;;;;5041076;28;19921;-81
2021/06/03 10:12:10;;;;;;;;;;;;;;;;;;5048599;28;19921;-81
2021/06/03 10:14:38;;;;;;;;;;;;;;;;;;5001842;28;19933;-81
2021/06/03 10:17:13;;;;;;;;;;;;;;;;;;5050771;28;19922;-81
2021/06/03 10:19:42;;;;;;;;;;;;;;;;;;5041003;28;19921;-81
2021/06/03 10:22:11;;;;;;;;;;;;;;;;;;5043566;28;19932;-82
2021/06/03 10:24:52;;;;;;;;;;;;;;;;;;5056197;28;20363;-82
2021/06/03 10:27:22;;;;;;;;;;;;;;;;;;5040661;28;19921;-81
2021/06/03 10:29:50;;;;;;;;;;;;;;;;;;5028284;28;20379;-80
2021/06/03 10:32:18;;;;;;;;;;;;;;;;;;5029983;28;19928;-81
2021/06/03 10:34:47;;;;;;;;;;;;;;;;;;5023583;28;19921;-81
2021/06/03 10:37:15;;;;;;;;;;;;;;;;;;5025588;28;20124;-81
2021/06/03 10:39:43;;;;;;;;;;;;;;;;;;5025864;28;20295;-81
2021/06/03 10:42:12;;;;;;;;;;;;;;;;;;5030543;28;20318;-82
2021/06/03 10:44:42;;;;;;;;;;;;;;;;;;5029104;28;19921;-81
2021/06/03 10:47:11;;;;;;;;;;;;;;;;;;5022060;28;19921;-81
2021/06/03 10:49:46;;;;;;;;;;;;;;;;;;5021335;28;19925;-81
2021/06/03 10:52:15;;;;;;;;;;;;;;;;;;5026113;28;19925;-82
2021/06/03 10:54:44;;;;;;;;;;;;;;;;;;5012546;28;19921;-82
2021/06/03 10:57:13;;;;;;;;;;;;;;;;;;5018030;28;19929;-81
2021/06/03 10:59:42;;;;;;;;;;;;;;;;;;5014648;28;19928;-82
2021/06/03 11:02:10;;;;;;;;;;;;;;;;;;5035324;28;19925;-81
2021/06/03 11:04:39;;;;;;;;;;;;;;;;;;5025133;28;19921;-82
2021/06/03 11:07:08;;;;;;;;;;;;;;;;;;5018132;28;20406;-82
2021/06/03 11:09:36;;;;;;;;;;;;;;;;;;5011240;28;19936;-82
2021/06/03 11:12:09;;;;;;;;;;;;;;;;;;5050468;28;19935;-82
2021/06/03 11:14:52;;;;;;;;;;;;;;;;;;5073550;28;19921;-81
2021/06/03 11:17:35;;;;;;;;;;;;;;;;;;5032165;28;19931;-81
2021/06/03 11:20:05;;;;;;;;;;;;;;;;;;5037018;28;19921;-81
2021/06/03 11:22:33;;;;;;;;;;;;;;;;;;5057487;28;19920;-82
2021/06/03 11:25:04;;;;;;;;;;;;;;;;;;5019263;28;20393;-80
2021/06/03 11:27:36;;;;;;;;;;;;;;;;;;5066254;28;19936;-81
2021/06/03 11:30:05;;;;;;;;;;;;;;;;;;5029873;28;20278;-81
2021/06/03 11:32:34;;;;;;;;;;;;;;;;;;5059462;28;19928;-81
2021/06/03 11:35:05;;;;;;;;;;;;;;;;;;5021461;28;19921;-81
2021/06/03 11:37:46;;;;;;;;;;;;;;;;;;5042151;28;19931;-83
2021/06/03 11:40:16;;;;;;;;;;;;;;;;;;5054055;28;19921;-81
2021/06/03 11:42:46;;;;;;;;;;;;;;;;;;5052414;28;20494;-81
2021/06/03 11:45:21;;;;;;;;;;;;;;;;;;5043388;28;19948;-81
2021/06/03 11:48:05;;;;;;;;;;;;;;;;;;5070688;28;19925;-82
2021/06/03 11:50:35;;;;;;;;;;;;;;;;;;5040487;28;20377;-81
2021/06/03 11:53:10;;;;;;;;;;;;;;;;;;5041053;28;20311;-81
2021/06/03 11:55:39;;;;;;;;;;;;;;;;;;5068474;28;19927;-81
2021/06/03 11:58:11;;;;;;;;;;;;;;;;;;5062859;28;19921;-82
2021/06/03 12:00:39;;;;;;;;;;;;;;;;;;5040992;28;20361;-79
2021/06/03 12:03:23;;;;;;;;;;;;;;;;;;5045230;28;19931;-81
2021/06/03 12:05:55;;;;;;;;;;;;;;;;;;5054830;28;20784;-81
2021/06/03 12:08:34;;;;;;;;;;;;;;;;;;5046109;28;19928;-80
2021/06/03 12:11:03;;;;;;;;;;;;;;;;;;5038668;28;19936;-82
2021/06/03 12:13:31;;;;;;;;;;;;;;;;;;5038753;28;20314;-81
2021/06/03 12:15:59;;;;;;;;;;;;;;;;;;5046158;28;19921;-81
2021/06/03 12:18:31;;;;;;;;;;;;;;;;;;5034399;28;19928;-81
2021/06/03 12:21:01;;;;;;;;;;;;;;;;;;5070393;28;19941;-80
2021/06/03 12:23:29;;;;;;;;;;;;;;;;;;5033975;28;20663;-81
2021/06/03 12:25:57;;;;;;;;;;;;;;;;;;5054182;28;19929;-80
2021/06/03 12:28:25;;;;;;;;;;;;;;;;;;5038186;28;20300;-81
2021/06/03 12:30:53;;;;;;;;;;;;;;;;;;5071825;28;19921;-82
2021/06/03 12:33:25;;;;;;;;;;;;;;;;;;5038900;28;19921;-81
2021/06/03 12:35:55;;;;;;;;;;;;;;;;;;5058758;28;20394;-80
2021/06/03 12:38:29;;;;;;;;;;;;;;;;;;5039150;28;19944;-81
2021/06/03 12:40:57;;;;;;;;;;;;;;;;;;5037051;28;19921;-81
2021/06/03 12:43:25;;;;;;;;;;;;;;;;;;5036862;28;19924;-82
2021/06/03 12:45:54;;;;;;;;;;;;;;;;;;5030563;28;19935;-82
2021/06/03 12:48:25;;;;;;;;;;;;;;;;;;5028289;28;20271;-82
2021/06/03 12:50:53;;;;;;;;;;;;;;;;;;5076253;28;19921;-82
2021/06/03 12:53:21;;;;;;;;;;;;;;;;;;5028383;28;19925;-82
2021/06/03 12:55:50;;;;;;;;;;;;;;;;;;5085506;28;19921;-82
2021/06/03 12:58:19;;;;;;;;;;;;;;;;;;5059308;28;19927;-80
2021/06/03 13:00:49;;;;;;;;;;;;;;;;;;5045213;28;19927;-82
2021/06/03 13:03:18;;;;;;;;;;;;;;;;;;5055273;28;20301;-81
2021/06/03 13:05:47;;;;;;;;;;;;;;;;;;5034595;28;19921;-82
2021/06/03 13:08:14;;;;;;;;;;;;;;;;;;5040227;28;20401;-81
2021/06/03 13:10:42;;;;;;;;;;;;;;;;;;5053720;28;19925;-81
2021/06/03 13:13:12;;;;;;;;;;;;;;;;;;5037155;28;19921;-81
2021/06/03 13:15:42;;;;;;;;;;;;;;;;;;5063049;28;20302;-81
2021/06/03 13:18:10;;;;;;;;;;;;;;;;;;5069521;28;19921;-81
2021/06/03 13:20:39;;;;;;;;;;;;;;;;;;5039067;28;20402;-81
2021/06/03 13:23:08;;;;;;;;;;;;;;;;;;5067602;28;20155;-82
2021/06/03 13:25:38;;;;;;;;;;;;;;;;;;5073217;28;19920;-83
2021/06/03 13:28:06;;;;;;;;;;;;;;;;;;5047011;28;20293;-82
2021/06/03 13:30:37;;;;;;;;;;;;;;;;;;5037463;28;19928;-82
2021/06/03 13:33:07;;;;;;;;;;;;;;;;;;5024213;28;19924;-83
2021/06/03 13:35:35;;;;;;;;;;;;;;;;;;5070036;28;19924;-83
2021/06/03 13:38:07;;;;;;;;;;;;;;;;;;5051568;28;19924;-83
2021/06/03 13:40:36;;;;;;;;;;;;;;;;;;5055618;28;19931;-83
2021/06/03 13:43:08;;;;;;;;;;;;;;;;;;5069424;28;19928;-83
2021/06/03 13:45:38;;;;;;;;;;;;;;;;;;5027205;28;20351;-84
2021/06/03 13:48:07;;;;;;;;;;;;;;;;;;5055153;28;20068;-82
2021/06/03 13:50:39;;;;;;;;;;;;;;;;;;5040203;28;19925;-82
2021/06/03 13:53:10;;;;;;;;;;;;;;;;;;5029378;28;20385;-83
2021/06/03 13:55:40;;;;;;;;;;;;;;;;;;5024544;28;20107;-84
2021/06/03 13:58:29;;;;;;;;;;;;;;;;;;5038392;28;19921;-82
2021/06/03 14:01:05;;;;;;;;;;;;;;;;;;5038797;28;19921;-80
2021/06/03 14:03:39;;;;;;;4.65;3.45;;;;;;;;;;5070038;28;20918;-83
2021/06/03 14:06:08;;;;;;;3.72;3.08;;;;;;;;;;5028149;28;20228;-82
2021/06/03 14:08:38;;;;;;;4.38;3.58;;;;;;;;;;5038130;28;20696;-82
2021/06/03 14:11:13;;;;;;;4.15;3.30;;;;;;;;;;5034304;28;20228;-82
2021/06/03 14:13:46;;;;;;;3.53;2.90;;;;;;;;;;5036440;28;20239;-83
2021/06/03 14:16:39;;;;;;;3.33;3.03;;;;;;;;;;5046145;28;20219;-82
2021/06/03 14:19:12;;;;;;;3.65;3.13;;;;;;;;;;5022015;28;20218;-83
2021/06/03 14:22:02;;;;;;;4.40;3.17;;;;;;;;;;5009159;28;20628;-83
2021/06/03 14:24:47;;;;;;;3.40;3.10;;;;;;;;;;5017303;28;20220;-83
2021/06/03 14:27:38;;;;;;;3.58;3.10;;;;;;;;;;5033857;28;20227;-83
2021/06/03 14:30:20;;;;;;;3.30;3.00;;;;;;;;;;5041428;28;20227;-82
2021/06/03 14:32:58;;;;;;;3.55;2.92;;;;;;;;;;5053408;28;20230;-83
2021/06/03 14:35:37;;;;;;;4.45;3.20;;;;;;;;;;5022413;28;20231;-83
2021/06/03 14:38:21;;;;;;;3.40;2.90;;;;;;;;;;5062565;28;20234;-82
2021/06/03 14:40:58;;;;;;;3.92;3.30;;;;;;;;;;5036125;28;20230;-83
2021/06/03 14:43:44;;;;;;;5.10;3.45;;;;;;;;;;5065953;28;20437;-83
2021/06/03 14:46:22;;;;;;;3.80;3.40;;;;;;;;;;5029177;28;20231;-82
2021/06/03 14:49:08;;;;;;;3.70;3.30;;;;;;;;;;5020933;28;20727;-83
2021/06/03 14:51:43;;;;;;;3.60;3.22;;;;;;;;;;5021516;28;20219;-82
2021/06/03 14:54:26;;;;;;;3.38;3.17;;;;;;;;;;5029381;28;20223;-83
2021/06/03 14:57:03;;;;;;;3.38;3.08;;;;;;;;;;5000805;28;20236;-83
2021/06/03 14:59:36;;;;;;;3.17;2.95;;;;;;;;;;5030030;28;20227;-82
2021/06/03 15:02:13;;;;;;;3.90;3.05;;;;;;;;;;5022083;28;20231;-82
2021/06/03 15:04:48;;;;;;;4.50;3.33;;;;;;;;;;5034544;28;20223;-82
2021/06/03 15:07:17;;;;;;;5.13;3.45;;;;;;;;;;5056665;28;20602;-83
2021/06/03 15:09:47;;;;;;;3.60;3.30;;;;;;;;;;5049131;28;20228;-83
2021/06/03 15:12:16;;;;;;;3.45;3.00;;;;;;;;;;5049308;28;20226;-83
2021/06/03 15:14:45;;;;;;;3.50;3.20;;;;;;;;;;5030946;28;20223;-83
2021/06/03 15:17:13;;;;;;;4.00;3.05;;;;;;;;;;5042220;28;20236;-83
2021/06/03 15:19:47;;;;;;;5.13;3.10;;;;;;;;;;5008243;28;20253;-83
2021/06/03 15:22:32;;;;;;;3.53;3.22;;;;;;;;;;5019109;28;20224;-82
2021/06/03 15:25:06;;;;;;;5.05;3.13;;;;;;;;;;5054288;28;20230;-83
2021/06/03 15:27:40;;;;;;;4.18;3.17;;;;;;;;;;5047018;28;20223;-83
2021/06/03 15:30:10;;;;;;;4.47;3.03;;;;;;;;;;5043932;28;20697;-83
2021/06/03 15:32:41;;;;;;;4.97;3.05;;;;;;;;;;5066184;28;20231;-84
2021/06/03 15:35:12;;;;;;;4.45;3.38;;;;;;;;;;5075793;28;20637;-83
2021/06/03 15:37:42;;;;;;;3.78;3.05;;;;;;;;;;5019761;28;20232;-83
2021/06/03 15:40:13;;;;;;;4.35;3.05;;;;;;;;;;5050324;28;20227;-83
2021/06/03 15:42:42;;;;;;;4.20;2.97;;;;;;;;;;5045240;28;20231;-83
2021/06/03 15:45:11;;;;;;;3.22;2.88;;;;;;;;;;5038815;28;20223;-83
2021/06/03 15:47:40;;;;;;;3.65;3.35;;;;;;;;;;5049103;28;20223;-82
2021/06/03 15:50:12;;;;;;;3.70;2.75;;;;;;;;;;5076796;28;20243;-83
2021/06/03 15:52:42;;;;;;;3.30;2.72;;;;;;;;;;5050843;28;20376;-83
2021/06/03 15:55:13;;;;;;;3.90;2.53;;;;;;;;;;5044227;28;20235;-83
2021/06/03 15:57:41;;;;;;;3.80;2.83;;;;;;;;;;5036138;28;20227;-82
2021/06/03 16:00:12;;;;;;;3.28;2.50;;;;;;;;;;5051191;28;20239;-82
2021/06/03 16:02:41;;;;;;;3.22;3.03;;;;;;;;;;5039367;28;20226;-81
2021/06/03 16:05:11;;;;;;;4.70;3.17;;;;;;;;;;5060450;28;20237;-81
2021/06/03 16:07:39;;;;;;;2.83;2.63;;;;;;;;;;5040385;28;20226;-82
2021/06/03 16:10:10;;;;;;;3.53;3.00;;;;;;;;;;5048660;28;20759;-82
2021/06/03 16:12:42;;;;;;;4.13;3.08;;;;;;;;;;5058153;28;20693;-82
2021/06/03 16:15:13;;;;;;;5.00;2.67;;;;;;;;;;5028621;28;20227;-83
2021/06/03 16:17:44;;;;;;;2.55;2.22;;;;;;;;;;5033089;28;20694;-82
2021/06/03 16:20:18;;;;;;;2.88;2.60;;;;;;;;;;5028813;28;20759;-82
2021/06/03 16:22:49;;;;;;;3.47;2.60;;;;;;;;;;5073747;28;20231;-82
2021/06/03 16:25:18;;;;;;;2.90;2.55;;;;;;;;;;5039141;28;20478;-82
2021/06/03 16:27:48;;;;;;;3.13;2.50;;;;;;;;;;5024505;28;20223;-81
2021/06/03 16:30:19;;;;;;;3.55;2.55;;;;;;;;;;5047009;28;20620;-81
2021/06/03 16:32:49;;;;;;;3.42;2.50;;;;;;;;;;5071879;28;20234;-82
2021/06/03 16:35:18;;;;;;;7.50;6.20;;;;;;;;;;5062446;28;20594;-82
2021/06/03 16:37:51;;;;;;;2.75;2.55;;;;;;;;;;5048096;28;20235;-82
2021/06/03 16:40:21;;;;;;;4.47;2.80;;;;;;;;;;5050642;28;20259;-83
2021/06/03 16:42:50;;;;;;;3.95;3.20;;;;;;;;;;5043754;28;20701;-82
2021/06/03 16:45:19;;;;;;;3.78;2.50;;;;;;;;;;5061515;28;20219;-82
2021/06/03 16:47:47;;;;;;;5.30;2.95;;;;;;;;;;5028458;28;20215;-82
2021/06/03 16:50:18;;;;;;;4.70;2.53;;;;;;;;;;5055879;28;20232;-83